createdAt,value
2022-11-06T00:01:12.727Z,99117.94
2022-11-06T00:03:40.360Z,99122.72
2022-11-06T00:06:33.197Z,99123.50
2022-11-06T00:09:01.901Z,99123.66
2022-11-06T00:11:28.591Z,99116.06
2022-11-06T00:13:57.495Z,99122.06
2022-11-06T00:16:24.486Z,99115.63
2022-11-06T00:18:51.978Z,99123.41
2022-11-06T00:21:22.949Z,99118.44
2022-11-06T00:23:51.202Z,99123.66
2022-11-06T00:26:20.935Z,99117.44
2022-11-06T00:28:49.045Z,99120.69
2022-11-06T00:31:19.060Z,99112.25
2022-11-06T00:33:45.742Z,99116.19
2022-11-06T00:36:15.299Z,99106.16
2022-11-06T00:38:43.947Z,99107.72
2022-11-06T00:41:14.076Z,99113.72
2022-11-06T00:43:41.432Z,99111.69
2022-11-06T00:46:13.318Z,99111.66
2022-11-06T00:48:41.333Z,99109.56
2022-11-06T00:51:16.926Z,99109.84
2022-11-06T00:53:45.272Z,99115.31
2022-11-06T00:56:17.885Z,99115.03
2022-11-06T00:58:45.703Z,99119.41
2022-11-06T01:01:23.503Z,99118.91
2022-11-06T01:03:57.870Z,99112.28
2022-11-06T01:06:28.129Z,99118.56
2022-11-06T01:08:55.604Z,99119.28
2022-11-06T01:11:23.865Z,99121.00
2022-11-06T01:13:53.947Z,99118.56
2022-11-06T01:16:21.366Z,99120.34
2022-11-06T01:18:49.333Z,99115.88
2022-11-06T01:21:19.846Z,99121.38
2022-11-06T01:23:47.607Z,99124.41
2022-11-06T01:26:18.629Z,99125.22
2022-11-06T01:28:57.222Z,99125.59
2022-11-06T01:31:27.393Z,99130.78
2022-11-06T01:34:01.360Z,99131.94
2022-11-06T01:36:29.016Z,99136.25
2022-11-06T01:38:59.650Z,99134.28
2022-11-06T01:41:30.071Z,99128.19
2022-11-06T01:44:18.053Z,99127.66
2022-11-06T01:46:45.443Z,99118.34
2022-11-06T01:49:16.555Z,99120.34
2022-11-06T01:51:56.832Z,99119.34
2022-11-06T01:54:31.935Z,99111.56
2022-11-06T01:57:01.659Z,99112.78
2022-11-06T01:59:31.846Z,99104.22
2022-11-06T02:01:58.893Z,99116.00
2022-11-06T02:04:38.761Z,99110.81
2022-11-06T02:07:06.698Z,99109.44
2022-11-06T02:09:35.288Z,99110.81
2022-11-06T02:12:30.858Z,99099.81
2022-11-06T02:15:07.485Z,99097.03
2022-11-06T02:17:46.409Z,99094.44
2022-11-06T02:20:29.111Z,99092.47
2022-11-06T02:23:17.683Z,99092.25
2022-11-06T02:25:54.367Z,99089.78
2022-11-06T02:28:39.542Z,99098.47
2022-11-06T02:31:12.462Z,99107.59
2022-11-06T02:33:47.699Z,99111.75
2022-11-06T02:36:23.152Z,99102.97
2022-11-06T02:38:56.586Z,99091.63
2022-11-06T02:41:31.108Z,99089.72
2022-11-06T02:43:59.486Z,99085.59
2022-11-06T02:46:33.639Z,99083.16
2022-11-06T02:49:09.502Z,99084.22
2022-11-06T02:51:41.338Z,99083.00
2022-11-06T02:54:12.044Z,99071.13
2022-11-06T02:56:43.499Z,99081.50
2022-11-06T02:59:15.043Z,99079.75
2022-11-06T03:02:05.567Z,99075.72
2022-11-06T03:04:51.865Z,99064.22
2022-11-06T03:07:28.931Z,99067.63
2022-11-06T03:09:56.067Z,99069.94
2022-11-06T03:12:25.591Z,99076.56
2022-11-06T03:15:19.243Z,99067.47
2022-11-06T03:18:18.972Z,99073.19
2022-11-06T03:20:54.727Z,99075.44
2022-11-06T03:23:42.286Z,99067.84
2022-11-06T03:26:17.570Z,99068.53
2022-11-06T03:28:59.607Z,99059.38
2022-11-06T03:31:32.724Z,99062.13
2022-11-06T03:34:05.086Z,99056.06
2022-11-06T03:36:37.315Z,99055.72
2022-11-06T03:39:09.972Z,99058.13
2022-11-06T03:41:52.110Z,99060.19
2022-11-06T03:44:21.966Z,99052.94
2022-11-06T03:46:56.080Z,99042.50
2022-11-06T03:49:37.007Z,99048.94
2022-11-06T03:52:11.089Z,99041.25
2022-11-06T03:54:49.924Z,99042.44
2022-11-06T03:57:24.644Z,99026.63
2022-11-06T03:59:55.723Z,99029.84
2022-11-06T04:02:26.158Z,99033.31
2022-11-06T04:05:00.766Z,99037.09
2022-11-06T04:07:36.994Z,99041.34
2022-11-06T04:10:27.202Z,99039.38
2022-11-06T04:13:16.220Z,99037.16
2022-11-06T04:15:53.652Z,99039.38
2022-11-06T04:18:21.636Z,99048.75
2022-11-06T04:21:23.018Z,99043.56
2022-11-06T04:24:12.737Z,99047.56
2022-11-06T04:26:53.622Z,99048.03
2022-11-06T04:29:26.234Z,99047.31
2022-11-06T04:32:08.488Z,99046.31
2022-11-06T04:34:44.837Z,99046.16
2022-11-06T04:37:53.591Z,99047.88
2022-11-06T04:40:29.709Z,99047.25
2022-11-06T04:43:02.082Z,99035.97
2022-11-06T04:45:36.298Z,99043.94
2022-11-06T04:48:05.651Z,99039.47
2022-11-06T04:50:41.772Z,99033.47
2022-11-06T04:53:10.814Z,99039.16
2022-11-06T04:56:00.163Z,99033.09
2022-11-06T04:58:27.952Z,99027.31
2022-11-06T05:00:54.515Z,99026.84
2022-11-06T05:03:21.069Z,99027.50
2022-11-06T05:05:47.659Z,99029.75
2022-11-06T05:08:16.974Z,99026.06
2022-11-06T05:10:44.798Z,99029.09
2022-11-06T05:13:12.121Z,99019.56
2022-11-06T05:15:39.020Z,99022.06
2022-11-06T05:18:06.570Z,99003.94
2022-11-06T05:20:33.755Z,98996.00
2022-11-06T05:23:03.130Z,98999.38
2022-11-06T05:25:37.955Z,98998.94
2022-11-06T05:28:07.276Z,99001.50
2022-11-06T05:30:36.441Z,99000.81
2022-11-06T05:33:03.639Z,98991.69
2022-11-06T05:35:30.530Z,98979.38
2022-11-06T05:38:02.239Z,98977.56
2022-11-06T05:40:29.313Z,98977.06
2022-11-06T05:42:56.098Z,98981.75
2022-11-06T05:45:23.051Z,98977.13
2022-11-06T05:47:49.779Z,98975.78
2022-11-06T05:50:16.724Z,98977.34
2022-11-06T05:52:43.448Z,98971.69
2022-11-06T05:55:14.781Z,98972.44
2022-11-06T05:57:42.594Z,98979.25
2022-11-06T06:00:11.194Z,98978.59
2022-11-06T06:02:48.082Z,98966.31
2022-11-06T06:05:14.767Z,98970.78
2022-11-06T06:07:41.324Z,98962.25
2022-11-06T06:10:08.476Z,98968.75
2022-11-06T06:12:35.347Z,98966.44
2022-11-06T06:15:01.853Z,98959.91
2022-11-06T06:17:28.293Z,98957.44
2022-11-06T06:19:54.839Z,98969.56
2022-11-06T06:22:21.231Z,98980.72
2022-11-06T06:24:47.806Z,98985.38
2022-11-06T06:27:14.305Z,98978.22
2022-11-06T06:29:40.790Z,98986.53
2022-11-06T06:32:07.301Z,98980.63
2022-11-06T06:34:33.860Z,98987.47
2022-11-06T06:37:00.390Z,98997.50
2022-11-06T06:39:26.894Z,99003.72
2022-11-06T06:41:53.505Z,99000.56
2022-11-06T06:44:20.169Z,99006.66
2022-11-06T06:46:46.746Z,99015.78
2022-11-06T06:49:13.248Z,99025.78
2022-11-06T06:51:39.680Z,99037.69
2022-11-06T06:54:06.192Z,99051.44
2022-11-06T06:56:32.616Z,99056.34
2022-11-06T06:58:59.104Z,99060.75
2022-11-06T07:01:25.715Z,99066.69
2022-11-06T07:03:52.360Z,99067.84
2022-11-06T07:06:19.738Z,99065.91
2022-11-06T07:08:46.567Z,99056.59
2022-11-06T07:11:13.384Z,99048.91
2022-11-06T07:13:39.881Z,99042.09
2022-11-06T07:16:08.786Z,99038.22
2022-11-06T07:18:35.994Z,99029.84
2022-11-06T07:21:08.551Z,99027.88
2022-11-06T07:23:36.458Z,99020.13
2022-11-06T07:26:04.285Z,99020.13
2022-11-06T07:28:31.117Z,99009.38
2022-11-06T07:30:59.807Z,99017.53
2022-11-06T07:33:26.539Z,99019.47
2022-11-06T07:35:53.164Z,99022.06
2022-11-06T07:38:19.653Z,99025.88
2022-11-06T07:40:46.179Z,99021.97
2022-11-06T07:43:13.082Z,99014.72
2022-11-06T07:45:39.721Z,99017.81
2022-11-06T07:48:06.558Z,99012.94
2022-11-06T07:50:33.241Z,99020.78
2022-11-06T07:53:03.055Z,99016.16
2022-11-06T07:55:29.617Z,99010.53
2022-11-06T07:57:56.130Z,99001.78
2022-11-06T08:00:22.568Z,98989.75
2022-11-06T08:02:53.422Z,98993.41
2022-11-06T08:05:20.761Z,98994.13
2022-11-06T08:07:47.350Z,98991.28
2022-11-06T08:10:14.129Z,98995.19
2022-11-06T08:12:40.740Z,98993.81
2022-11-06T08:15:07.477Z,98994.38
2022-11-06T08:17:33.907Z,98995.75
2022-11-06T08:20:00.379Z,98992.16
2022-11-06T08:22:26.847Z,98982.94
2022-11-06T08:24:53.309Z,98971.88
2022-11-06T08:27:19.699Z,98963.13
2022-11-06T08:29:46.166Z,98950.47
2022-11-06T08:32:12.670Z,98949.59
2022-11-06T08:34:39.242Z,98945.13
2022-11-06T08:37:05.816Z,98949.44
2022-11-06T08:39:32.374Z,98957.88
2022-11-06T08:41:59.043Z,98945.34
2022-11-06T08:44:25.542Z,98948.97
2022-11-06T08:46:52.517Z,98937.84
2022-11-06T08:49:19.307Z,98936.31
2022-11-06T08:51:45.872Z,98937.34
2022-11-06T08:54:14.478Z,98921.78
2022-11-06T08:56:42.061Z,98925.97
2022-11-06T08:59:08.688Z,98925.38
2022-11-06T09:01:35.404Z,98925.19
2022-11-06T09:04:02.098Z,98922.44
2022-11-06T09:06:28.552Z,98919.22
2022-11-06T09:08:56.068Z,98922.25
2022-11-06T09:11:22.573Z,98916.09
2022-11-06T09:13:49.120Z,98904.91
2022-11-06T09:16:16.346Z,98899.47
2022-11-06T09:18:43.536Z,98902.47
2022-11-06T09:21:10.356Z,98893.69
2022-11-06T09:23:37.054Z,98886.28
2022-11-06T09:26:03.809Z,98882.66
2022-11-06T09:28:30.292Z,98879.25
2022-11-06T09:30:56.786Z,98868.25
2022-11-06T09:33:23.509Z,98859.44
2022-11-06T09:35:53.186Z,98865.81
2022-11-06T09:38:19.949Z,98857.06
2022-11-06T09:40:49.666Z,98860.22
2022-11-06T09:44:06.674Z,98856.81
2022-11-06T09:46:45.945Z,98857.38
2022-11-06T09:49:28.009Z,98856.91
2022-11-06T09:52:08.333Z,98850.72
2022-11-06T09:54:37.589Z,98857.78
2022-11-06T09:57:18.618Z,98857.38
2022-11-06T09:59:47.205Z,98853.34
2022-11-06T10:02:38.587Z,98844.44
2022-11-06T10:05:16.042Z,98843.03
2022-11-06T10:07:44.441Z,98836.31
2022-11-06T10:10:24.003Z,98832.88
2022-11-06T10:13:11.559Z,98832.13
2022-11-06T10:16:02.554Z,98831.25
2022-11-06T10:18:59.024Z,98833.88
2022-11-06T10:21:42.161Z,98828.97
2022-11-06T10:24:21.610Z,98835.00
2022-11-06T10:26:53.917Z,98826.69
2022-11-06T10:29:41.172Z,98819.50
2022-11-06T10:32:26.674Z,98818.00
2022-11-06T10:35:04.336Z,98813.03
2022-11-06T10:37:41.156Z,98805.00
2022-11-06T10:40:18.217Z,98801.50
2022-11-06T10:42:53.142Z,98798.34
2022-11-06T10:45:21.615Z,98797.88
2022-11-06T10:47:55.648Z,98786.13
2022-11-06T10:50:28.601Z,98795.75
2022-11-06T10:53:09.458Z,98774.81
2022-11-06T10:56:11.124Z,98781.38
2022-11-06T10:58:38.349Z,98775.38
2022-11-06T11:01:11.207Z,98785.69
2022-11-06T11:03:43.247Z,98782.09
2022-11-06T11:06:10.117Z,98777.41
2022-11-06T11:08:40.736Z,98784.78
2022-11-06T11:11:23.371Z,98781.53
2022-11-06T11:13:58.473Z,98784.41
2022-11-06T11:16:32.987Z,98790.63
2022-11-06T11:19:41.389Z,98774.28
2022-11-06T11:22:19.277Z,98775.38
2022-11-06T11:25:25.028Z,98771.91
2022-11-06T11:27:51.885Z,98768.00
2022-11-06T11:30:27.803Z,98755.00
2022-11-06T11:32:56.817Z,98750.97
2022-11-06T11:35:32.866Z,98738.88
2022-11-06T11:38:16.111Z,98738.88
2022-11-06T11:40:43.999Z,98742.66
2022-11-06T11:43:19.793Z,98731.78
2022-11-06T11:46:16.606Z,98724.41
2022-11-06T11:48:48.955Z,98723.63
2022-11-06T11:51:23.758Z,98727.59
2022-11-06T11:53:52.968Z,98732.66
2022-11-06T11:56:42.480Z,98730.69
2022-11-06T11:59:18.634Z,98720.41
2022-11-06T12:01:46.356Z,98714.91
2022-11-06T12:04:21.171Z,98718.59
2022-11-06T12:06:59.502Z,98705.19
2022-11-06T12:09:28.097Z,98703.25
2022-11-06T12:11:58.101Z,98691.34
2022-11-06T12:14:36.699Z,98689.13
2022-11-06T12:17:23.760Z,98682.53
2022-11-06T12:19:53.654Z,98684.66
2022-11-06T12:22:32.886Z,98675.53
2022-11-06T12:25:33.744Z,98671.97
2022-11-06T12:28:03.977Z,98672.16
2022-11-06T12:30:33.979Z,98671.06
2022-11-06T12:33:14.790Z,98664.41
2022-11-06T12:36:00.160Z,98657.13
2022-11-06T12:38:46.467Z,98655.66
2022-11-06T12:41:25.336Z,98654.84
2022-11-06T12:43:52.783Z,98639.78
2022-11-06T12:46:49.909Z,98641.13
2022-11-06T12:49:27.215Z,98643.28
2022-11-06T12:52:01.346Z,98635.00
2022-11-06T12:55:14.152Z,98626.34
2022-11-06T12:58:01.107Z,98617.81
2022-11-06T13:00:51.853Z,98608.06
2022-11-06T13:03:37.136Z,98601.75
2022-11-06T13:06:15.152Z,98593.44
2022-11-06T13:09:02.824Z,98586.25
2022-11-06T13:11:42.208Z,98585.63
2022-11-06T13:14:36.074Z,98581.91
2022-11-06T13:17:25.421Z,98582.78
2022-11-06T13:20:03.639Z,98586.34
2022-11-06T13:22:33.151Z,98574.75
2022-11-06T13:25:14.984Z,98561.78
2022-11-06T13:28:26.680Z,98563.38
2022-11-06T13:30:55.345Z,98561.00
2022-11-06T13:33:29.220Z,98547.97
2022-11-06T13:35:56.665Z,98539.25
2022-11-06T13:38:32.667Z,98544.69
2022-11-06T13:41:05.740Z,98538.78
2022-11-06T13:43:39.531Z,98528.94
2022-11-06T13:46:11.399Z,98524.06
2022-11-06T13:48:51.260Z,98525.88
2022-11-06T13:51:47.842Z,98523.59
2022-11-06T13:54:52.092Z,98497.19
2022-11-06T13:57:52.889Z,98496.16
2022-11-06T14:00:41.288Z,98491.16
2022-11-06T14:03:51.802Z,98486.28
2022-11-06T14:06:28.593Z,98475.50
2022-11-06T14:08:59.457Z,98469.06
2022-11-06T14:11:39.304Z,98482.91
2022-11-06T14:14:12.020Z,98484.03
2022-11-06T14:16:40.383Z,98480.16
2022-11-06T14:19:14.697Z,98481.97
2022-11-06T14:21:58.399Z,98491.50
2022-11-06T14:24:32.451Z,98495.69
2022-11-06T14:27:01.543Z,98494.66
2022-11-06T14:29:28.196Z,98492.09
2022-11-06T14:32:11.226Z,98484.25
2022-11-06T14:34:40.081Z,98480.16
2022-11-06T14:37:18.860Z,98462.22
2022-11-06T14:39:51.447Z,98453.56
2022-11-06T14:42:39.956Z,98456.16
2022-11-06T14:45:15.132Z,98459.75
2022-11-06T14:48:02.218Z,98449.47
2022-11-06T14:50:35.826Z,98453.22
2022-11-06T14:53:06.412Z,98458.34
2022-11-06T14:56:05.745Z,98461.00
2022-11-06T14:58:41.155Z,98467.31
2022-11-06T15:01:10.793Z,98467.53
2022-11-06T15:03:51.386Z,98469.34
2022-11-06T15:06:18.063Z,98467.34
2022-11-06T15:08:50.637Z,98473.31
2022-11-06T15:11:32.455Z,98467.09
2022-11-06T15:13:59.690Z,98474.69
2022-11-06T15:17:00.168Z,98477.28
2022-11-06T15:19:31.831Z,98475.56
2022-11-06T15:22:41.587Z,98478.34
2022-11-06T15:25:17.373Z,98479.59
2022-11-06T15:27:59.540Z,98469.97
2022-11-06T15:30:30.366Z,98476.56
2022-11-06T15:32:57.752Z,98475.66
2022-11-06T15:35:27.779Z,98468.09
2022-11-06T15:38:05.189Z,98464.41
2022-11-06T15:40:41.634Z,98457.25
2022-11-06T15:43:17.440Z,98459.13
2022-11-06T15:45:43.936Z,98452.34
2022-11-06T15:48:23.979Z,98443.88
2022-11-06T15:50:50.698Z,98437.28
2022-11-06T15:53:21.525Z,98434.94
2022-11-06T15:56:02.230Z,98435.56
2022-11-06T15:58:33.043Z,98426.53
2022-11-06T16:01:01.540Z,98426.03
2022-11-06T16:03:50.211Z,98436.28
2022-11-06T16:06:19.043Z,98435.34
2022-11-06T16:08:46.152Z,98437.16
2022-11-06T16:11:17.784Z,98434.31
2022-11-06T16:13:48.426Z,98440.75
2022-11-06T16:16:31.812Z,98439.44
2022-11-06T16:18:58.769Z,98440.09
2022-11-06T16:21:33.155Z,98436.69
2022-11-06T16:24:04.574Z,98431.13
2022-11-06T16:26:37.145Z,98436.59
2022-11-06T16:29:16.951Z,98423.75
2022-11-06T16:31:43.999Z,98421.97
2022-11-06T16:34:35.662Z,98420.44
2022-11-06T16:37:04.738Z,98424.13
2022-11-06T16:39:48.087Z,98418.28
2022-11-06T16:42:19.978Z,98425.28
2022-11-06T16:44:48.129Z,98434.69
2022-11-06T16:47:22.491Z,98433.34
2022-11-06T16:49:54.659Z,98441.00
2022-11-06T16:52:34.709Z,98440.81
2022-11-06T16:55:02.684Z,98436.53
2022-11-06T16:57:48.310Z,98446.38
2022-11-06T17:00:20.918Z,98437.81
2022-11-06T17:02:59.351Z,98430.81
2022-11-06T17:05:28.752Z,98432.56
2022-11-06T17:08:07.505Z,98422.16
2022-11-06T17:10:42.438Z,98415.72
2022-11-06T17:13:15.432Z,98417.00
2022-11-06T17:15:44.012Z,98414.03
2022-11-06T17:18:22.168Z,98417.50
2022-11-06T17:20:53.212Z,98427.13
2022-11-06T17:23:20.121Z,98427.69
2022-11-06T17:25:47.838Z,98424.25
2022-11-06T17:28:15.134Z,98428.56
2022-11-06T17:30:41.790Z,98426.75
2022-11-06T17:33:08.308Z,98421.56
2022-11-06T17:35:34.740Z,98428.81
2022-11-06T17:38:07.052Z,98429.59
2022-11-06T17:40:34.130Z,98436.28
2022-11-06T17:43:00.718Z,98440.03
2022-11-06T17:45:27.097Z,98432.50
2022-11-06T17:47:53.807Z,98436.88
2022-11-06T17:50:20.711Z,98424.06
2022-11-06T17:52:47.215Z,98426.25
2022-11-06T17:55:13.889Z,98430.88
2022-11-06T17:57:40.447Z,98435.72
2022-11-06T18:00:07.874Z,98426.72
2022-11-06T18:02:59.175Z,98428.47
2022-11-06T18:05:20.786Z,98429.75
2022-11-06T18:07:47.254Z,98428.59
2022-11-06T18:10:13.711Z,98437.03
2022-11-06T18:12:40.127Z,98437.03
2022-11-06T18:15:07.321Z,98427.06
2022-11-06T18:17:34.556Z,98435.50
2022-11-06T18:20:00.984Z,98433.69
2022-11-06T18:22:27.523Z,98426.59
2022-11-06T18:24:54.293Z,98404.34
2022-11-06T18:27:20.749Z,98396.75
2022-11-06T18:29:47.212Z,98396.22
2022-11-06T18:32:13.759Z,98394.38
2022-11-06T18:34:40.416Z,98400.44
2022-11-06T18:37:06.861Z,98409.22
2022-11-06T18:39:33.298Z,98404.66
2022-11-06T18:41:59.888Z,98400.69
2022-11-06T18:44:29.736Z,98402.28
2022-11-06T18:46:56.290Z,98401.28
2022-11-06T18:49:22.815Z,98402.50
2022-11-06T18:51:49.316Z,98389.28
2022-11-06T18:54:15.930Z,98391.25
2022-11-06T18:56:42.477Z,98382.50
2022-11-06T18:59:15.539Z,98386.47
2022-11-06T19:01:42.364Z,98389.25
2022-11-06T19:04:10.584Z,98382.97
2022-11-06T19:06:39.188Z,98377.56
2022-11-06T19:09:07.586Z,98370.69
2022-11-06T19:11:34.525Z,98378.41
2022-11-06T19:14:04.116Z,98364.72
2022-11-06T19:16:30.525Z,98371.19
2022-11-06T19:21:28.991Z,98385.03
2022-11-06T19:24:03.513Z,98384.59
2022-11-06T19:26:32.334Z,98387.63
2022-11-06T19:28:59.918Z,98394.38
2022-11-06T19:31:29.177Z,98401.41
2022-11-06T19:33:57.334Z,98406.72
2022-11-06T19:36:25.204Z,98413.69
2022-11-06T19:38:52.159Z,98416.91
2022-11-06T19:41:18.701Z,98416.31
2022-11-06T19:43:45.483Z,98417.66
2022-11-06T19:46:12.156Z,98409.28
2022-11-06T19:48:38.706Z,98414.13
2022-11-06T19:51:10.636Z,98405.72
2022-11-06T19:53:37.921Z,98416.00
2022-11-06T19:56:05.997Z,98405.44
2022-11-06T19:58:32.804Z,98406.19
2022-11-06T20:00:59.439Z,98404.97
2022-11-06T20:03:26.193Z,98400.91
2022-11-06T20:05:54.312Z,98409.06
2022-11-06T20:08:21.051Z,98406.88
2022-11-06T20:10:57.214Z,98418.44
2022-11-06T20:13:23.810Z,98416.38
2022-11-06T20:15:50.363Z,98413.13
2022-11-06T20:18:17.021Z,98418.31
2022-11-06T20:20:43.509Z,98422.25
2022-11-06T20:23:09.987Z,98427.28
2022-11-06T20:25:36.411Z,98428.31
2022-11-06T20:28:03.572Z,98420.63
2022-11-06T20:30:30.723Z,98404.63
2022-11-06T20:32:57.292Z,98411.78
2022-11-06T20:35:23.856Z,98417.91
2022-11-06T20:37:50.482Z,98412.78
2022-11-06T20:40:17.168Z,98418.63
2022-11-06T20:42:43.662Z,98412.94
2022-11-06T20:45:10.258Z,98408.22
2022-11-06T20:47:36.745Z,98406.44
2022-11-06T20:50:04.055Z,98404.84
2022-11-06T20:52:30.711Z,98409.47
2022-11-06T20:54:57.409Z,98410.03
2022-11-06T20:57:23.904Z,98415.53
2022-11-06T20:59:53.284Z,98430.19
2022-11-06T21:02:19.944Z,98439.81
2022-11-06T21:04:47.023Z,98448.53
2022-11-06T21:07:13.653Z,98440.88
2022-11-06T21:09:40.327Z,98455.31
2022-11-06T21:12:07.237Z,98452.94
2022-11-06T21:14:33.920Z,98456.69
2022-11-06T21:17:03.745Z,98451.81
2022-11-06T21:19:30.325Z,98453.03
2022-11-06T21:21:58.084Z,98454.88
2022-11-06T21:24:25.269Z,98461.22
2022-11-06T21:26:55.826Z,98461.38
2022-11-06T21:29:23.957Z,98469.16
2022-11-06T21:31:51.457Z,98471.19
2022-11-06T21:34:19.263Z,98466.50
2022-11-06T21:36:46.039Z,98458.53
2022-11-06T21:39:15.583Z,98456.09
2022-11-06T21:41:42.588Z,98473.19
2022-11-06T21:44:13.588Z,98468.69
2022-11-06T21:46:45.053Z,98466.34
2022-11-06T21:49:12.578Z,98463.31
2022-11-06T21:51:39.179Z,98457.69
2022-11-06T21:54:24.162Z,98462.28
2022-11-06T21:56:51.042Z,98469.88
2022-11-06T21:59:20.164Z,98464.69
2022-11-06T22:01:47.014Z,98467.38
2022-11-06T22:04:13.631Z,98461.59
2022-11-06T22:06:43.712Z,98472.06
2022-11-06T22:09:12.296Z,98470.91
2022-11-06T22:11:41.107Z,98472.72
2022-11-06T22:14:11.559Z,98470.13
2022-11-06T22:16:40.746Z,98471.00
2022-11-06T22:19:08.993Z,98471.00
2022-11-06T22:21:37.280Z,98479.72
2022-11-06T22:24:04.256Z,98478.16
2022-11-06T22:26:33.095Z,98465.28
2022-11-06T22:29:01.545Z,98475.31
2022-11-06T22:31:29.069Z,98479.31
2022-11-06T22:33:55.934Z,98481.69
2022-11-06T22:36:26.346Z,98481.47
2022-11-06T22:38:53.152Z,98483.22
2022-11-06T22:41:23.432Z,98484.94
2022-11-06T22:43:50.648Z,98483.63
2022-11-06T22:46:20.010Z,98486.19
2022-11-06T22:48:47.323Z,98478.28
2022-11-06T22:51:18.101Z,98485.38
2022-11-06T22:53:44.543Z,98492.75
2022-11-06T22:56:14.454Z,98487.38
2022-11-06T22:58:41.652Z,98501.06
2022-11-06T23:01:10.024Z,98502.81
2022-11-06T23:03:37.130Z,98503.66
2022-11-06T23:06:06.415Z,98511.13
2022-11-06T23:08:33.586Z,98508.16
2022-11-06T23:11:07.371Z,98510.75
2022-11-06T23:13:34.340Z,98512.19
2022-11-06T23:16:05.026Z,98506.78
2022-11-06T23:18:31.892Z,98509.22
2022-11-06T23:20:58.550Z,98506.78
2022-11-06T23:23:25.472Z,98511.44
2022-11-06T23:25:52.226Z,98515.13
2022-11-06T23:28:19.052Z,98513.91
2022-11-06T23:30:45.930Z,98513.59
2022-11-06T23:33:12.616Z,98521.41
2022-11-06T23:35:39.455Z,98517.47
2022-11-06T23:38:05.968Z,98517.03
2022-11-06T23:40:32.378Z,98523.84
2022-11-06T23:42:58.826Z,98521.75
2022-11-06T23:45:43.911Z,98517.16
2022-11-06T23:48:14.263Z,98524.63
2022-11-06T23:50:41.675Z,98523.16
2022-11-06T23:53:08.134Z,98524.13
2022-11-06T23:55:34.604Z,98534.53
2022-11-06T23:58:01.137Z,98529.47
